sensor_id;sensor_type;location;lat;lon;timestamp;P1;durP1;ratioP1;P2;durP2;ratioP2
13057;SDS011;6595;49.578;11.012;2022-08-19T00:00:24;20.8;;;18.9;;
13057;SDS011;6595;49.578;11.012;2022-08-19T00:02:24;20.2;;;18.2;;
13057;SDS011;6595;49.578;11.012;2022-08-19T00:04:24;20.1;;;18.3;;
13057;SDS011;6595;49.578;11.012;2022-08-19T00:06:24;20.5;;;18.5;;
13057;SDS011;6595;49.578;11.012;2022-08-19T00:08:24;20.5;;;18.5;;
13057;SDS011;6595;49.578;11.012;2022-08-19T00:10:24;20.9;;;18.8;;
13057;SDS011;6595;49.578;11.012;2022-08-19T00:12:24;21.1;;;18.9;;
13057;SDS011;6595;49.578;11.012;2022-08-19T00:14:24;21.1;;;18.9;;
13057;SDS011;6595;49.578;11.012;2022-08-19T00:16:24;19.9;;;18.1;;
13057;SDS011;6595;49.578;11.012;2022-08-19T00:18:24;21.1;;;19.1;;
13057;SDS011;6595;49.578;11.012;2022-08-19T00:20:24;21.1;;;19.1;;
13057;SDS011;6595;49.578;11.012;2022-08-19T00:22:24;21.2;;;19.1;;
13057;SDS011;6595;49.578;11.012;2022-08-19T00:24:24;21.8;;;19.6;;
13057;SDS011;6595;49.578;11.012;2022-08-19T00:26:24;21.8;;;19.6;;
13057;SDS011;6595;49.578;11.012;2022-08-19T00:28:24;22.2;;;20.0;;
13057;SDS011;6595;49.578;11.012;2022-08-19T00:30:23;21.9;;;19.8;;
13057;SDS011;6595;49.578;11.012;2022-08-19T00:32:24;21.9;;;19.8;;
13057;SDS011;6595;49.578;11.012;2022-08-19T00:34:23;21.9;;;19.7;;
13057;SDS011;6595;49.578;11.012;2022-08-19T00:36:24;21.9;;;19.7;;
13057;SDS011;6595;49.578;11.012;2022-08-19T00:38:24;21.3;;;19.4;;
13057;SDS011;6595;49.578;11.012;2022-08-19T00:40:24;21.4;;;19.3;;
13057;SDS011;6595;49.578;11.012;2022-08-19T00:42:23;21.4;;;19.3;;
13057;SDS011;6595;49.578;11.012;2022-08-19T00:44:24;21.3;;;19.2;;
13057;SDS011;6595;49.578;11.012;2022-08-19T00:46:24;21.3;;;19.2;;
13057;SDS011;6595;49.578;11.012;2022-08-19T00:48:23;21.8;;;19.8;;
13057;SDS011;6595;49.578;11.012;2022-08-19T00:50:23;22.9;;;20.8;;
13057;SDS011;6595;49.578;11.012;2022-08-19T00:52:24;22.9;;;20.8;;
13057;SDS011;6595;49.578;11.012;2022-08-19T00:54:24;22.7;;;20.5;;
13057;SDS011;6595;49.578;11.012;2022-08-19T00:56:23;22.7;;;20.5;;
13057;SDS011;6595;49.578;11.012;2022-08-19T00:58:24;23.1;;;21.0;;
13057;SDS011;6595;49.578;11.012;2022-08-19T01:00:24;22.3;;;20.2;;
13057;SDS011;6595;49.578;11.012;2022-08-19T01:02:23;22.3;;;20.2;;
13057;SDS011;6595;49.578;11.012;2022-08-19T01:04:24;22.7;;;20.6;;
13057;SDS011;6595;49.578;11.012;2022-08-19T01:06:23;22.7;;;20.6;;
13057;SDS011;6595;49.578;11.012;2022-08-19T01:08:23;21.4;;;19.4;;
13057;SDS011;6595;49.578;11.012;2022-08-19T01:10:25;20.9;;;19.1;;
13057;SDS011;6595;49.578;11.012;2022-08-19T01:12:24;21.3;;;19.3;;
13057;SDS011;6595;49.578;11.012;2022-08-19T01:14:24;21.3;;;19.3;;
13057;SDS011;6595;49.578;11.012;2022-08-19T01:16:25;21.8;;;19.6;;
13057;SDS011;6595;49.578;11.012;2022-08-19T01:18:24;22.0;;;20.0;;
13057;SDS011;6595;49.578;11.012;2022-08-19T01:20:24;21.9;;;19.8;;
13057;SDS011;6595;49.578;11.012;2022-08-19T01:22:27;21.9;;;19.8;;
13057;SDS011;6595;49.578;11.012;2022-08-19T01:24:24;21.9;;;19.8;;
13057;SDS011;6595;49.578;11.012;2022-08-19T01:26:24;21.8;;;19.7;;
13057;SDS011;6595;49.578;11.012;2022-08-19T01:28:24;21.3;;;19.3;;
13057;SDS011;6595;49.578;11.012;2022-08-19T01:30:24;21.6;;;19.3;;
13057;SDS011;6595;49.578;11.012;2022-08-19T01:32:23;21.3;;;19.3;;
13057;SDS011;6595;49.578;11.012;2022-08-19T01:34:24;21.3;;;19.3;;
13057;SDS011;6595;49.578;11.012;2022-08-19T01:36:26;21.0;;;18.9;;
13057;SDS011;6595;49.578;11.012;2022-08-19T01:38:25;20.7;;;18.7;;
13057;SDS011;6595;49.578;11.012;2022-08-19T01:40:25;20.8;;;18.8;;
13057;SDS011;6595;49.578;11.012;2022-08-19T01:42:24;20.8;;;18.8;;
13057;SDS011;6595;49.578;11.012;2022-08-19T01:44:24;20.9;;;18.9;;
13057;SDS011;6595;49.578;11.012;2022-08-19T01:46:23;22.5;;;20.2;;
13057;SDS011;6595;49.578;11.012;2022-08-19T01:48:23;21.9;;;19.7;;
13057;SDS011;6595;49.578;11.012;2022-08-19T01:50:23;22.0;;;19.9;;
13057;SDS011;6595;49.578;11.012;2022-08-19T01:52:24;22.0;;;19.9;;
13057;SDS011;6595;49.578;11.012;2022-08-19T01:54:24;22.7;;;20.4;;
13057;SDS011;6595;49.578;11.012;2022-08-19T01:56:24;23.2;;;20.8;;
13057;SDS011;6595;49.578;11.012;2022-08-19T01:58:24;24.2;;;21.7;;
13057;SDS011;6595;49.578;11.012;2022-08-19T02:00:24;24.5;;;22.2;;
13057;SDS011;6595;49.578;11.012;2022-08-19T02:02:24;24.5;;;22.2;;
13057;SDS011;6595;49.578;11.012;2022-08-19T02:04:23;24.9;;;22.5;;
13057;SDS011;6595;49.578;11.012;2022-08-19T02:06:23;24.9;;;22.5;;
13057;SDS011;6595;49.578;11.012;2022-08-19T02:08:24;24.7;;;22.2;;
13057;SDS011;6595;49.578;11.012;2022-08-19T02:10:23;24.3;;;21.9;;
13057;SDS011;6595;49.578;11.012;2022-08-19T02:12:24;24.3;;;21.9;;
13057;SDS011;6595;49.578;11.012;2022-08-19T02:14:24;24.7;;;22.1;;
13057;SDS011;6595;49.578;11.012;2022-08-19T02:16:23;25.2;;;22.7;;
13057;SDS011;6595;49.578;11.012;2022-08-19T02:18:23;25.6;;;22.6;;
13057;SDS011;6595;49.578;11.012;2022-08-19T02:20:23;25.6;;;22.6;;
13057;SDS011;6595;49.578;11.012;2022-08-19T02:22:24;25.5;;;23.0;;
13057;SDS011;6595;49.578;11.012;2022-08-19T02:24:23;25.5;;;23.0;;
13057;SDS011;6595;49.578;11.012;2022-08-19T02:26:23;25.9;;;23.2;;
13057;SDS011;6595;49.578;11.012;2022-08-19T02:28:23;24.6;;;22.2;;
13057;SDS011;6595;49.578;11.012;2022-08-19T02:30:23;24.6;;;22.2;;
13057;SDS011;6595;49.578;11.012;2022-08-19T02:32:23;24.7;;;22.3;;
13057;SDS011;6595;49.578;11.012;2022-08-19T02:34:24;24.2;;;21.7;;
13057;SDS011;6595;49.578;11.012;2022-08-19T02:36:24;23.8;;;21.4;;
13057;SDS011;6595;49.578;11.012;2022-08-19T02:38:24;24.0;;;21.6;;
13057;SDS011;6595;49.578;11.012;2022-08-19T02:40:23;24.0;;;21.6;;
13057;SDS011;6595;49.578;11.012;2022-08-19T02:42:23;24.9;;;22.3;;
13057;SDS011;6595;49.578;11.012;2022-08-19T02:44:23;24.9;;;22.3;;
13057;SDS011;6595;49.578;11.012;2022-08-19T02:46:24;24.7;;;22.2;;
13057;SDS011;6595;49.578;11.012;2022-08-19T02:48:24;24.3;;;21.9;;
13057;SDS011;6595;49.578;11.012;2022-08-19T02:50:24;24.4;;;21.9;;
13057;SDS011;6595;49.578;11.012;2022-08-19T02:52:23;24.4;;;21.9;;
13057;SDS011;6595;49.578;11.012;2022-08-19T02:54:23;24.4;;;22.0;;
13057;SDS011;6595;49.578;11.012;2022-08-19T02:56:23;24.4;;;22.0;;
13057;SDS011;6595;49.578;11.012;2022-08-19T02:58:23;24.3;;;21.8;;
13057;SDS011;6595;49.578;11.012;2022-08-19T03:00:23;24.3;;;21.8;;
13057;SDS011;6595;49.578;11.012;2022-08-19T03:02:23;25.1;;;22.5;;
13057;SDS011;6595;49.578;11.012;2022-08-19T03:04:24;24.5;;;21.9;;
13057;SDS011;6595;49.578;11.012;2022-08-19T03:06:24;24.4;;;21.8;;
13057;SDS011;6595;49.578;11.012;2022-08-19T03:08:24;24.4;;;21.8;;
13057;SDS011;6595;49.578;11.012;2022-08-19T03:10:24;25.2;;;22.6;;
13057;SDS011;6595;49.578;11.012;2022-08-19T03:12:23;24.9;;;22.4;;
13057;SDS011;6595;49.578;11.012;2022-08-19T03:14:23;25.1;;;22.6;;
13057;SDS011;6595;49.578;11.012;2022-08-19T03:16:25;25.1;;;22.6;;
13057;SDS011;6595;49.578;11.012;2022-08-19T03:18:24;24.5;;;22.0;;
13057;SDS011;6595;49.578;11.012;2022-08-19T03:20:23;24.5;;;22.0;;
13057;SDS011;6595;49.578;11.012;2022-08-19T03:22:23;24.7;;;22.2;;
13057;SDS011;6595;49.578;11.012;2022-08-19T03:24:24;24.4;;;21.8;;
13057;SDS011;6595;49.578;11.012;2022-08-19T03:26:23;25.5;;;22.8;;
13057;SDS011;6595;49.578;11.012;2022-08-19T03:28:23;26.4;;;23.6;;
13057;SDS011;6595;49.578;11.012;2022-08-19T03:30:23;26.4;;;23.6;;
13057;SDS011;6595;49.578;11.012;2022-08-19T03:32:23;26.4;;;23.6;;
13057;SDS011;6595;49.578;11.012;2022-08-19T03:34:24;26.5;;;23.7;;
13057;SDS011;6595;49.578;11.012;2022-08-19T03:36:25;26.0;;;23.4;;
13057;SDS011;6595;49.578;11.012;2022-08-19T03:40:23;26.3;;;23.5;;
13057;SDS011;6595;49.578;11.012;2022-08-19T03:42:23;25.8;;;23.0;;
13057;SDS011;6595;49.578;11.012;2022-08-19T03:44:23;26.6;;;23.7;;
13057;SDS011;6595;49.578;11.012;2022-08-19T03:46:25;27.9;;;24.9;;
13057;SDS011;6595;49.578;11.012;2022-08-19T03:48:24;27.9;;;24.9;;
13057;SDS011;6595;49.578;11.012;2022-08-19T03:50:23;27.4;;;24.6;;
13057;SDS011;6595;49.578;11.012;2022-08-19T03:52:23;28.5;;;25.3;;
13057;SDS011;6595;49.578;11.012;2022-08-19T03:54:24;27.8;;;24.8;;
13057;SDS011;6595;49.578;11.012;2022-08-19T03:56:24;28.6;;;25.5;;
13057;SDS011;6595;49.578;11.012;2022-08-19T03:58:24;28.6;;;25.5;;
13057;SDS011;6595;49.578;11.012;2022-08-19T04:00:24;28.7;;;24.8;;
13057;SDS011;6595;49.578;11.012;2022-08-19T04:02:23;28.5;;;25.5;;
13057;SDS011;6595;49.578;11.012;2022-08-19T04:04:23;29.5;;;25.8;;
13057;SDS011;6595;49.578;11.012;2022-08-19T04:06:24;28.4;;;25.2;;
13057;SDS011;6595;49.578;11.012;2022-08-19T04:08:23;28.4;;;25.2;;
13057;SDS011;6595;49.578;11.012;2022-08-19T04:10:23;29.6;;;26.2;;
13057;SDS011;6595;49.578;11.012;2022-08-19T04:12:23;29.6;;;25.4;;
13057;SDS011;6595;49.578;11.012;2022-08-19T04:14:24;29.5;;;25.4;;
13057;SDS011;6595;49.578;11.012;2022-08-19T04:16:24;29.5;;;25.4;;
13057;SDS011;6595;49.578;11.012;2022-08-19T04:18:24;28.8;;;25.2;;
13057;SDS011;6595;49.578;11.012;2022-08-19T04:20:24;29.9;;;25.4;;
13057;SDS011;6595;49.578;11.012;2022-08-19T04:22:23;28.5;;;25.2;;
13057;SDS011;6595;49.578;11.012;2022-08-19T04:24:23;29.3;;;25.4;;
13057;SDS011;6595;49.578;11.012;2022-08-19T04:26:25;29.3;;;25.4;;
13057;SDS011;6595;49.578;11.012;2022-08-19T04:28:24;30.1;;;25.9;;
13057;SDS011;6595;49.578;11.012;2022-08-19T04:30:23;28.7;;;24.1;;
13057;SDS011;6595;49.578;11.012;2022-08-19T04:32:23;27.4;;;24.4;;
13057;SDS011;6595;49.578;11.012;2022-08-19T04:34:25;33.4;;;24.3;;
13057;SDS011;6595;49.578;11.012;2022-08-19T04:36:25;33.4;;;24.3;;
13057;SDS011;6595;49.578;11.012;2022-08-19T04:38:23;29.3;;;25.3;;
13057;SDS011;6595;49.578;11.012;2022-08-19T04:40:23;28.3;;;25.0;;
13057;SDS011;6595;49.578;11.012;2022-08-19T04:42:24;28.1;;;24.7;;
13057;SDS011;6595;49.578;11.012;2022-08-19T04:44:24;28.1;;;24.7;;
13057;SDS011;6595;49.578;11.012;2022-08-19T04:46:24;27.1;;;23.9;;
13057;SDS011;6595;49.578;11.012;2022-08-19T04:48:24;29.3;;;24.8;;
13057;SDS011;6595;49.578;11.012;2022-08-19T04:50:24;30.3;;;24.9;;
13057;SDS011;6595;49.578;11.012;2022-08-19T04:52:24;30.3;;;24.9;;
13057;SDS011;6595;49.578;11.012;2022-08-19T04:54:24;29.0;;;25.2;;
13057;SDS011;6595;49.578;11.012;2022-08-19T04:56:24;29.0;;;25.2;;
13057;SDS011;6595;49.578;11.012;2022-08-19T04:58:24;28.8;;;25.1;;
13057;SDS011;6595;49.578;11.012;2022-08-19T05:00:23;30.0;;;26.2;;
13057;SDS011;6595;49.578;11.012;2022-08-19T05:02:23;30.0;;;26.2;;
13057;SDS011;6595;49.578;11.012;2022-08-19T05:04:24;29.3;;;25.6;;
13057;SDS011;6595;49.578;11.012;2022-08-19T05:06:23;29.3;;;25.6;;
13057;SDS011;6595;49.578;11.012;2022-08-19T05:08:23;29.7;;;24.8;;
13057;SDS011;6595;49.578;11.012;2022-08-19T05:10:23;28.9;;;24.7;;
13057;SDS011;6595;49.578;11.012;2022-08-19T05:12:23;31.2;;;25.3;;
13057;SDS011;6595;49.578;11.012;2022-08-19T05:14:23;31.2;;;25.3;;
13057;SDS011;6595;49.578;11.012;2022-08-19T05:16:24;31.4;;;25.5;;
13057;SDS011;6595;49.578;11.012;2022-08-19T05:18:24;30.9;;;25.1;;
13057;SDS011;6595;49.578;11.012;2022-08-19T05:20:23;29.3;;;24.8;;
13057;SDS011;6595;49.578;11.012;2022-08-19T05:22:23;29.3;;;24.8;;
13057;SDS011;6595;49.578;11.012;2022-08-19T05:24:24;28.6;;;25.4;;
13057;SDS011;6595;49.578;11.012;2022-08-19T05:26:23;28.6;;;25.4;;
13057;SDS011;6595;49.578;11.012;2022-08-19T05:28:23;27.0;;;24.1;;
13057;SDS011;6595;49.578;11.012;2022-08-19T05:30:23;27.0;;;24.1;;
13057;SDS011;6595;49.578;11.012;2022-08-19T05:32:24;27.2;;;24.3;;
13057;SDS011;6595;49.578;11.012;2022-08-19T05:34:24;27.2;;;24.3;;
13057;SDS011;6595;49.578;11.012;2022-08-19T05:36:23;28.8;;;25.0;;
13057;SDS011;6595;49.578;11.012;2022-08-19T05:38:23;27.3;;;23.9;;
13057;SDS011;6595;49.578;11.012;2022-08-19T05:40:23;25.7;;;22.9;;
13057;SDS011;6595;49.578;11.012;2022-08-19T05:42:23;25.7;;;22.9;;
13057;SDS011;6595;49.578;11.012;2022-08-19T05:44:24;26.5;;;23.7;;
13057;SDS011;6595;49.578;11.012;2022-08-19T05:46:24;31.1;;;27.2;;
13057;SDS011;6595;49.578;11.012;2022-08-19T05:48:23;26.4;;;22.5;;
13057;SDS011;6595;49.578;11.012;2022-08-19T05:50:23;26.4;;;22.5;;
13057;SDS011;6595;49.578;11.012;2022-08-19T05:52:23;24.8;;;22.1;;
13057;SDS011;6595;49.578;11.012;2022-08-19T05:54:24;24.8;;;22.1;;
13057;SDS011;6595;49.578;11.012;2022-08-19T05:56:23;25.5;;;22.3;;
13057;SDS011;6595;49.578;11.012;2022-08-19T05:58:23;27.1;;;22.9;;
13057;SDS011;6595;49.578;11.012;2022-08-19T06:00:23;27.1;;;22.9;;
13057;SDS011;6595;49.578;11.012;2022-08-19T06:02:24;23.8;;;21.4;;
13057;SDS011;6595;49.578;11.012;2022-08-19T06:04:23;23.8;;;21.4;;
13057;SDS011;6595;49.578;11.012;2022-08-19T06:06:23;25.0;;;21.6;;
13057;SDS011;6595;49.578;11.012;2022-08-19T06:08:24;23.3;;;20.9;;
13057;SDS011;6595;49.578;11.012;2022-08-19T06:10:24;23.3;;;20.9;;
13057;SDS011;6595;49.578;11.012;2022-08-19T06:12:23;22.7;;;20.2;;
13057;SDS011;6595;49.578;11.012;2022-08-19T06:14:24;22.7;;;20.2;;
13057;SDS011;6595;49.578;11.012;2022-08-19T06:16:24;23.1;;;20.7;;
13057;SDS011;6595;49.578;11.012;2022-08-19T06:18:24;22.1;;;19.8;;
13057;SDS011;6595;49.578;11.012;2022-08-19T06:20:23;22.3;;;18.4;;
13057;SDS011;6595;49.578;11.012;2022-08-19T06:22:24;23.3;;;20.9;;
13057;SDS011;6595;49.578;11.012;2022-08-19T06:24:24;23.3;;;20.9;;
13057;SDS011;6595;49.578;11.012;2022-08-19T06:26:23;23.3;;;20.9;;
13057;SDS011;6595;49.578;11.012;2022-08-19T06:28:24;26.1;;;23.4;;
13057;SDS011;6595;49.578;11.012;2022-08-19T06:30:24;23.9;;;21.4;;
13057;SDS011;6595;49.578;11.012;2022-08-19T06:32:24;23.9;;;21.4;;
13057;SDS011;6595;49.578;11.012;2022-08-19T06:34:23;24.0;;;21.4;;
13057;SDS011;6595;49.578;11.012;2022-08-19T06:36:24;24.2;;;21.7;;
13057;SDS011;6595;49.578;11.012;2022-08-19T06:38:23;24.9;;;22.2;;
13057;SDS011;6595;49.578;11.012;2022-08-19T06:40:23;24.9;;;22.2;;
13057;SDS011;6595;49.578;11.012;2022-08-19T06:42:23;25.1;;;22.5;;
13057;SDS011;6595;49.578;11.012;2022-08-19T06:44:24;25.6;;;22.3;;
13057;SDS011;6595;49.578;11.012;2022-08-19T06:46:24;25.0;;;22.3;;
13057;SDS011;6595;49.578;11.012;2022-08-19T06:48:24;25.1;;;21.7;;
13057;SDS011;6595;49.578;11.012;2022-08-19T06:50:23;25.1;;;21.7;;
13057;SDS011;6595;49.578;11.012;2022-08-19T06:52:23;23.9;;;21.4;;
13057;SDS011;6595;49.578;11.012;2022-08-19T06:54:24;23.9;;;21.4;;
13057;SDS011;6595;49.578;11.012;2022-08-19T06:56:25;21.9;;;19.6;;
13057;SDS011;6595;49.578;11.012;2022-08-19T06:58:23;25.0;;;21.5;;
13057;SDS011;6595;49.578;11.012;2022-08-19T07:00:23;25.0;;;21.5;;
13057;SDS011;6595;49.578;11.012;2022-08-19T07:02:23;24.0;;;20.6;;
13057;SDS011;6595;49.578;11.012;2022-08-19T07:04:25;23.1;;;20.6;;
13057;SDS011;6595;49.578;11.012;2022-08-19T07:06:24;23.0;;;20.7;;
13057;SDS011;6595;49.578;11.012;2022-08-19T07:08:24;23.0;;;20.7;;
13057;SDS011;6595;49.578;11.012;2022-08-19T07:10:23;22.4;;;20.0;;
13057;SDS011;6595;49.578;11.012;2022-08-19T07:12:24;22.9;;;20.3;;
13057;SDS011;6595;49.578;11.012;2022-08-19T07:14:24;23.0;;;20.6;;
13057;SDS011;6595;49.578;11.012;2022-08-19T07:16:23;23.5;;;20.0;;
13057;SDS011;6595;49.578;11.012;2022-08-19T07:18:23;23.5;;;20.0;;
13057;SDS011;6595;49.578;11.012;2022-08-19T07:20:24;23.3;;;20.8;;
13057;SDS011;6595;49.578;11.012;2022-08-19T07:22:23;23.8;;;20.9;;
13057;SDS011;6595;49.578;11.012;2022-08-19T07:24:24;23.9;;;21.0;;
13057;SDS011;6595;49.578;11.012;2022-08-19T07:26:25;25.5;;;22.0;;
13057;SDS011;6595;49.578;11.012;2022-08-19T07:28:23;25.5;;;22.0;;
13057;SDS011;6595;49.578;11.012;2022-08-19T07:30:23;23.4;;;21.0;;
13057;SDS011;6595;49.578;11.012;2022-08-19T07:32:24;23.7;;;21.2;;
13057;SDS011;6595;49.578;11.012;2022-08-19T07:34:23;23.9;;;21.4;;
13057;SDS011;6595;49.578;11.012;2022-08-19T07:36:24;23.9;;;21.4;;
13057;SDS011;6595;49.578;11.012;2022-08-19T07:38:23;23.9;;;21.4;;
13057;SDS011;6595;49.578;11.012;2022-08-19T07:40:23;24.2;;;21.0;;
13057;SDS011;6595;49.578;11.012;2022-08-19T07:42:23;23.6;;;21.1;;
13057;SDS011;6595;49.578;11.012;2022-08-19T07:44:24;22.8;;;20.5;;
13057;SDS011;6595;49.578;11.012;2022-08-19T07:46:23;22.8;;;20.5;;
13057;SDS011;6595;49.578;11.012;2022-08-19T07:48:24;23.1;;;20.8;;
13057;SDS011;6595;49.578;11.012;2022-08-19T07:50:24;23.1;;;20.8;;
13057;SDS011;6595;49.578;11.012;2022-08-19T07:52:24;24.4;;;21.8;;
13057;SDS011;6595;49.578;11.012;2022-08-19T07:54:24;22.7;;;20.3;;
13057;SDS011;6595;49.578;11.012;2022-08-19T07:56:23;22.7;;;20.3;;
13057;SDS011;6595;49.578;11.012;2022-08-19T07:58:24;22.7;;;20.4;;
13057;SDS011;6595;49.578;11.012;2022-08-19T08:00:23;22.9;;;20.5;;
13057;SDS011;6595;49.578;11.012;2022-08-19T08:02:23;23.4;;;20.5;;
13057;SDS011;6595;49.578;11.012;2022-08-19T08:04:23;23.1;;;20.6;;
13057;SDS011;6595;49.578;11.012;2022-08-19T08:06:24;23.1;;;20.6;;
13057;SDS011;6595;49.578;11.012;2022-08-19T08:08:24;23.4;;;20.9;;
13057;SDS011;6595;49.578;11.012;2022-08-19T08:10:24;23.6;;;21.1;;
13057;SDS011;6595;49.578;11.012;2022-08-19T08:12:25;22.3;;;20.0;;
13057;SDS011;6595;49.578;11.012;2022-08-19T08:14:24;22.3;;;20.0;;
13057;SDS011;6595;49.578;11.012;2022-08-19T08:16:24;24.4;;;20.7;;
13057;SDS011;6595;49.578;11.012;2022-08-19T08:18:24;24.4;;;20.7;;
13057;SDS011;6595;49.578;11.012;2022-08-19T08:20:23;23.6;;;20.6;;
13057;SDS011;6595;49.578;11.012;2022-08-19T08:22:24;22.3;;;19.9;;
13057;SDS011;6595;49.578;11.012;2022-08-19T08:24:23;23.6;;;19.7;;
13057;SDS011;6595;49.578;11.012;2022-08-19T08:26:23;23.6;;;19.7;;
13057;SDS011;6595;49.578;11.012;2022-08-19T08:28:24;23.1;;;20.6;;
13057;SDS011;6595;49.578;11.012;2022-08-19T08:30:24;22.4;;;20.0;;
13057;SDS011;6595;49.578;11.012;2022-08-19T08:32:24;21.1;;;18.8;;
13057;SDS011;6595;49.578;11.012;2022-08-19T08:34:24;21.6;;;19.2;;
13057;SDS011;6595;49.578;11.012;2022-08-19T08:36:24;20.6;;;18.3;;
13057;SDS011;6595;49.578;11.012;2022-08-19T08:38:24;20.6;;;18.3;;
13057;SDS011;6595;49.578;11.012;2022-08-19T08:40:26;19.6;;;17.6;;
13057;SDS011;6595;49.578;11.012;2022-08-19T08:42:27;20.2;;;18.0;;
13057;SDS011;6595;49.578;11.012;2022-08-19T08:44:27;19.1;;;17.1;;
13057;SDS011;6595;49.578;11.012;2022-08-19T08:46:25;19.1;;;17.1;;
13057;SDS011;6595;49.578;11.012;2022-08-19T08:48:24;18.6;;;16.7;;
13057;SDS011;6595;49.578;11.012;2022-08-19T08:50:27;19.2;;;17.2;;
13057;SDS011;6595;49.578;11.012;2022-08-19T08:52:25;19.1;;;16.9;;
13057;SDS011;6595;49.578;11.012;2022-08-19T08:54:24;18.6;;;16.7;;
13057;SDS011;6595;49.578;11.012;2022-08-19T08:56:24;18.6;;;16.7;;
13057;SDS011;6595;49.578;11.012;2022-08-19T08:58:25;20.1;;;16.5;;
13057;SDS011;6595;49.578;11.012;2022-08-19T09:00:24;17.2;;;15.4;;
13057;SDS011;6595;49.578;11.012;2022-08-19T09:02:24;17.7;;;15.8;;
13057;SDS011;6595;49.578;11.012;2022-08-19T09:04:24;17.7;;;15.8;;
13057;SDS011;6595;49.578;11.012;2022-08-19T09:06:25;17.6;;;15.8;;
13057;SDS011;6595;49.578;11.012;2022-08-19T09:08:27;18.3;;;16.4;;
13057;SDS011;6595;49.578;11.012;2022-08-19T09:10:25;18.7;;;16.7;;
13057;SDS011;6595;49.578;11.012;2022-08-19T09:12:24;22.2;;;18.0;;
13057;SDS011;6595;49.578;11.012;2022-08-19T09:14:29;22.2;;;18.0;;
13057;SDS011;6595;49.578;11.012;2022-08-19T09:16:24;21.8;;;18.6;;
13057;SDS011;6595;49.578;11.012;2022-08-19T09:18:24;22.2;;;19.0;;
13057;SDS011;6595;49.578;11.012;2022-08-19T09:20:24;22.7;;;19.6;;
13057;SDS011;6595;49.578;11.012;2022-08-19T09:22:24;21.7;;;19.1;;
13057;SDS011;6595;49.578;11.012;2022-08-19T09:24:24;21.7;;;19.1;;
13057;SDS011;6595;49.578;11.012;2022-08-19T09:26:23;21.6;;;19.3;;
13057;SDS011;6595;49.578;11.012;2022-08-19T09:28:23;20.1;;;18.0;;
13057;SDS011;6595;49.578;11.012;2022-08-19T09:30:25;22.0;;;19.7;;
13057;SDS011;6595;49.578;11.012;2022-08-19T09:32:23;21.2;;;19.0;;
13057;SDS011;6595;49.578;11.012;2022-08-19T09:34:23;20.4;;;18.2;;
13057;SDS011;6595;49.578;11.012;2022-08-19T09:36:25;20.4;;;18.2;;
13057;SDS011;6595;49.578;11.012;2022-08-19T09:38:23;20.3;;;18.3;;
13057;SDS011;6595;49.578;11.012;2022-08-19T09:40:23;20.3;;;18.3;;
13057;SDS011;6595;49.578;11.012;2022-08-19T09:42:24;20.0;;;17.8;;
13057;SDS011;6595;49.578;11.012;2022-08-19T09:44:23;20.0;;;17.8;;
13057;SDS011;6595;49.578;11.012;2022-08-19T09:46:24;19.8;;;17.7;;
13057;SDS011;6595;49.578;11.012;2022-08-19T09:48:23;19.0;;;17.0;;
13057;SDS011;6595;49.578;11.012;2022-08-19T09:50:24;19.4;;;17.4;;
13057;SDS011;6595;49.578;11.012;2022-08-19T09:52:24;19.5;;;17.5;;
13057;SDS011;6595;49.578;11.012;2022-08-19T09:54:23;19.5;;;17.5;;
13057;SDS011;6595;49.578;11.012;2022-08-19T09:56:24;18.8;;;17.0;;
13057;SDS011;6595;49.578;11.012;2022-08-19T09:58:24;18.5;;;16.6;;
13057;SDS011;6595;49.578;11.012;2022-08-19T10:00:24;18.5;;;16.6;;
13057;SDS011;6595;49.578;11.012;2022-08-19T10:02:24;19.7;;;17.2;;
13057;SDS011;6595;49.578;11.012;2022-08-19T10:04:24;19.7;;;17.2;;
13057;SDS011;6595;49.578;11.012;2022-08-19T10:06:25;18.2;;;15.8;;
13057;SDS011;6595;49.578;11.012;2022-08-19T10:08:25;18.0;;;16.1;;
13057;SDS011;6595;49.578;11.012;2022-08-19T10:10:23;18.0;;;16.1;;
13057;SDS011;6595;49.578;11.012;2022-08-19T10:12:23;18.4;;;16.4;;
13057;SDS011;6595;49.578;11.012;2022-08-19T10:14:23;18.4;;;16.4;;
13057;SDS011;6595;49.578;11.012;2022-08-19T10:16:24;19.0;;;17.0;;
13057;SDS011;6595;49.578;11.012;2022-08-19T10:18:24;18.3;;;16.4;;
13057;SDS011;6595;49.578;11.012;2022-08-19T10:20:23;17.0;;;15.3;;
13057;SDS011;6595;49.578;11.012;2022-08-19T10:22:23;17.0;;;15.3;;
13057;SDS011;6595;49.578;11.012;2022-08-19T10:24:24;17.0;;;15.3;;
13057;SDS011;6595;49.578;11.012;2022-08-19T10:26:24;17.0;;;15.3;;
13057;SDS011;6595;49.578;11.012;2022-08-19T10:28:23;16.7;;;15.0;;
13057;SDS011;6595;49.578;11.012;2022-08-19T10:30:24;16.7;;;15.0;;
13057;SDS011;6595;49.578;11.012;2022-08-19T10:32:24;16.6;;;15.0;;
13057;SDS011;6595;49.578;11.012;2022-08-19T10:34:23;16.4;;;14.8;;
13057;SDS011;6595;49.578;11.012;2022-08-19T10:36:25;16.4;;;14.8;;
13057;SDS011;6595;49.578;11.012;2022-08-19T10:38:23;20.2;;;15.3;;
13057;SDS011;6595;49.578;11.012;2022-08-19T10:40:24;20.2;;;15.3;;
13057;SDS011;6595;49.578;11.012;2022-08-19T10:42:24;16.5;;;14.7;;
13057;SDS011;6595;49.578;11.012;2022-08-19T10:44:24;16.5;;;14.7;;
13057;SDS011;6595;49.578;11.012;2022-08-19T10:46:25;18.3;;;15.5;;
13057;SDS011;6595;49.578;11.012;2022-08-19T10:48:23;18.3;;;15.5;;
13057;SDS011;6595;49.578;11.012;2022-08-19T10:50:24;16.6;;;15.0;;
13057;SDS011;6595;49.578;11.012;2022-08-19T10:52:24;16.6;;;15.0;;
13057;SDS011;6595;49.578;11.012;2022-08-19T10:54:23;16.2;;;14.5;;
13057;SDS011;6595;49.578;11.012;2022-08-19T10:56:24;19.0;;;15.0;;
13057;SDS011;6595;49.578;11.012;2022-08-19T10:58:24;19.0;;;15.0;;
13057;SDS011;6595;49.578;11.012;2022-08-19T11:00:24;16.4;;;14.7;;
13057;SDS011;6595;49.578;11.012;2022-08-19T11:02:24;16.4;;;14.7;;
13057;SDS011;6595;49.578;11.012;2022-08-19T11:04:23;16.6;;;15.1;;
13057;SDS011;6595;49.578;11.012;2022-08-19T11:06:24;16.3;;;14.8;;
13057;SDS011;6595;49.578;11.012;2022-08-19T11:08:23;16.3;;;14.8;;
13057;SDS011;6595;49.578;11.012;2022-08-19T11:10:23;16.5;;;14.9;;
13057;SDS011;6595;49.578;11.012;2022-08-19T11:12:23;16.5;;;14.9;;
13057;SDS011;6595;49.578;11.012;2022-08-19T11:14:24;16.1;;;14.6;;
13057;SDS011;6595;49.578;11.012;2022-08-19T11:16:24;16.0;;;14.4;;
13057;SDS011;6595;49.578;11.012;2022-08-19T11:18:23;15.8;;;14.2;;
13057;SDS011;6595;49.578;11.012;2022-08-19T11:20:24;15.8;;;14.2;;
13057;SDS011;6595;49.578;11.012;2022-08-19T11:22:23;15.5;;;14.1;;
13057;SDS011;6595;49.578;11.012;2022-08-19T11:24:24;15.9;;;14.3;;
13057;SDS011;6595;49.578;11.012;2022-08-19T11:26:24;15.9;;;14.2;;
13057;SDS011;6595;49.578;11.012;2022-08-19T11:28:23;15.9;;;14.2;;
13057;SDS011;6595;49.578;11.012;2022-08-19T11:30:24;16.0;;;14.4;;
13057;SDS011;6595;49.578;11.012;2022-08-19T11:32:23;15.9;;;14.3;;
13057;SDS011;6595;49.578;11.012;2022-08-19T11:34:25;15.2;;;13.8;;
13057;SDS011;6595;49.578;11.012;2022-08-19T11:36:23;15.7;;;14.3;;
13057;SDS011;6595;49.578;11.012;2022-08-19T11:38:24;16.0;;;14.3;;
13057;SDS011;6595;49.578;11.012;2022-08-19T11:40:23;16.0;;;14.3;;
13057;SDS011;6595;49.578;11.012;2022-08-19T11:42:24;17.4;;;14.9;;
13057;SDS011;6595;49.578;11.012;2022-08-19T11:44:23;18.1;;;14.6;;
13057;SDS011;6595;49.578;11.012;2022-08-19T11:46:24;18.1;;;14.6;;
13057;SDS011;6595;49.578;11.012;2022-08-19T11:48:24;20.3;;;13.6;;
13057;SDS011;6595;49.578;11.012;2022-08-19T11:50:23;20.3;;;13.6;;
13057;SDS011;6595;49.578;11.012;2022-08-19T11:52:23;22.9;;;14.5;;
13057;SDS011;6595;49.578;11.012;2022-08-19T11:54:23;16.1;;;14.4;;
13057;SDS011;6595;49.578;11.012;2022-08-19T11:56:24;15.8;;;14.1;;
13057;SDS011;6595;49.578;11.012;2022-08-19T11:58:24;15.2;;;13.8;;
13057;SDS011;6595;49.578;11.012;2022-08-19T12:00:24;15.2;;;13.8;;
13057;SDS011;6595;49.578;11.012;2022-08-19T12:02:24;16.0;;;14.5;;
13057;SDS011;6595;49.578;11.012;2022-08-19T12:04:23;16.4;;;14.9;;